createdAt,value
2022-09-02T00:00:52.571Z,834.00
2022-09-02T00:01:53.203Z,833.00
2022-09-02T00:02:52.862Z,833.00
2022-09-02T00:03:53.527Z,832.00
2022-09-02T00:04:55.717Z,832.00
2022-09-02T00:05:55.423Z,834.00
2022-09-02T00:06:54.879Z,835.00
2022-09-02T00:07:56.623Z,834.00
2022-09-02T00:08:57.316Z,833.00
2022-09-02T00:09:58.004Z,836.00
2022-09-02T00:10:58.649Z,826.00
2022-09-02T00:11:58.503Z,838.00
2022-09-02T00:13:00.036Z,838.00
2022-09-02T00:14:00.552Z,840.00
2022-09-02T00:15:01.363Z,837.00
2022-09-02T00:16:01.932Z,840.00
2022-09-02T00:17:01.610Z,836.00
2022-09-02T00:18:01.789Z,837.00
2022-09-02T00:19:02.053Z,840.00
2022-09-02T00:20:03.769Z,838.00
2022-09-02T00:20:12.340Z,837.00
2022-09-02T00:21:13.818Z,835.00
2022-09-02T00:22:14.218Z,834.00
2022-09-02T00:23:15.022Z,833.00
2022-09-02T00:24:15.116Z,823.00
2022-09-02T00:25:15.825Z,823.00
2022-09-02T00:26:16.146Z,822.00
2022-09-02T00:27:16.905Z,833.00
2022-09-02T00:28:17.428Z,833.00
2022-09-02T00:29:16.722Z,824.00
2022-09-02T00:30:17.996Z,836.00
2022-09-02T00:31:18.465Z,836.00
2022-09-02T00:32:17.672Z,836.00
2022-09-02T00:33:19.678Z,840.00
2022-09-02T00:34:18.855Z,836.00
2022-09-02T00:35:20.405Z,836.00
2022-09-02T00:36:20.926Z,682.00
2022-09-02T00:37:21.763Z,708.00
2022-09-02T00:38:21.108Z,834.00
2022-09-02T00:39:22.435Z,834.00
2022-09-02T00:39:31.905Z,824.00
2022-09-02T00:40:33.465Z,834.00
2022-09-02T00:41:33.177Z,833.00
2022-09-02T00:42:34.720Z,834.00
2022-09-02T00:43:35.333Z,832.00
2022-09-02T00:44:35.522Z,832.00
2022-09-02T00:45:35.757Z,832.00
2022-09-02T00:46:35.227Z,832.00
2022-09-02T00:47:36.410Z,821.00
2022-09-02T00:48:36.371Z,832.00
2022-09-02T00:49:37.961Z,833.00
2022-09-02T00:50:38.262Z,833.00
2022-09-02T00:51:38.894Z,833.00
2022-09-02T00:52:39.172Z,833.00
2022-09-02T00:53:39.822Z,833.00
2022-09-02T00:54:40.153Z,832.00
2022-09-02T00:55:40.296Z,832.00
2022-09-02T00:56:41.156Z,831.00
2022-09-02T00:57:41.693Z,832.00
2022-09-02T00:58:42.658Z,833.00
2022-09-02T00:58:51.231Z,833.00
2022-09-02T00:59:52.476Z,832.00
2022-09-02T01:00:53.061Z,832.00
2022-09-02T01:01:52.450Z,832.00
2022-09-02T01:02:53.065Z,833.00
2022-09-02T01:03:53.561Z,832.00
2022-09-02T01:04:54.930Z,833.00
2022-09-02T01:05:55.631Z,833.00
2022-09-02T01:06:56.571Z,833.00
2022-09-02T01:07:57.169Z,834.00
2022-09-02T01:08:57.696Z,836.00
2022-09-02T01:09:58.087Z,834.00
2022-09-02T01:10:58.176Z,834.00
2022-09-02T01:11:59.173Z,835.00
2022-09-02T01:12:59.435Z,834.00
2022-09-02T01:14:00.071Z,835.00
2022-09-02T01:15:00.425Z,824.00
2022-09-02T01:16:00.607Z,834.00
2022-09-02T01:16:59.917Z,835.00
2022-09-02T01:18:01.331Z,836.00
2022-09-02T01:18:09.982Z,836.00
2022-09-02T01:19:11.798Z,841.00
2022-09-02T01:20:12.397Z,831.00
2022-09-02T01:21:12.895Z,829.00
2022-09-02T01:22:13.539Z,828.00
2022-09-02T01:23:13.613Z,828.00
2022-09-02T01:24:13.298Z,836.00
2022-09-02T01:25:14.720Z,837.00
2022-09-02T01:26:14.832Z,840.00
2022-09-02T01:27:15.648Z,843.00
2022-09-02T01:28:16.373Z,845.00
2022-09-02T01:29:16.638Z,843.00
2022-09-02T01:30:17.100Z,845.00
2022-09-02T01:31:17.473Z,841.00
2022-09-02T01:32:16.671Z,841.00
2022-09-02T01:33:18.000Z,835.00
2022-09-02T01:34:17.262Z,842.00
2022-09-02T01:35:18.538Z,843.00
2022-09-02T01:36:18.893Z,841.00
2022-09-02T01:37:19.613Z,845.00
2022-09-02T01:37:28.259Z,835.00
2022-09-02T01:38:28.856Z,845.00
2022-09-02T01:39:30.171Z,845.00
2022-09-02T01:40:31.001Z,843.00
2022-09-02T01:41:30.178Z,843.00
2022-09-02T01:42:31.441Z,841.00
2022-09-02T01:43:31.915Z,842.00
2022-09-02T01:44:32.360Z,843.00
2022-09-02T01:45:32.387Z,845.00
2022-09-02T01:46:33.342Z,842.00
2022-09-02T01:47:32.670Z,842.00
2022-09-02T01:48:33.883Z,841.00
2022-09-02T01:49:35.327Z,841.00
2022-09-02T01:50:33.961Z,841.00
2022-09-02T01:51:35.784Z,841.00
2022-09-02T01:52:36.353Z,841.00
2022-09-02T01:53:36.629Z,840.00
2022-09-02T01:54:37.413Z,840.00
2022-09-02T01:55:36.907Z,838.00
2022-09-02T01:56:38.221Z,838.00
2022-09-02T01:56:46.820Z,837.00
2022-09-02T01:57:48.235Z,836.00
2022-09-02T01:58:48.871Z,842.00
2022-09-02T01:59:49.236Z,841.00
2022-09-02T02:00:50.028Z,840.00
2022-09-02T02:01:49.742Z,837.00
2022-09-02T02:02:50.087Z,840.00
2022-09-02T02:03:50.825Z,841.00
2022-09-02T02:04:52.025Z,838.00
2022-09-02T02:05:52.986Z,838.00
2022-09-02T02:06:53.460Z,838.00
2022-09-02T02:07:52.960Z,838.00
2022-09-02T02:08:54.161Z,840.00
2022-09-02T02:09:55.054Z,836.00
2022-09-02T02:10:54.717Z,835.00
2022-09-02T02:11:56.290Z,836.00
2022-09-02T02:12:56.827Z,836.00
2022-09-02T02:13:57.217Z,835.00
2022-09-02T02:14:57.664Z,836.00
2022-09-02T02:15:57.557Z,836.00
2022-09-02T02:16:58.328Z,816.00
2022-09-02T02:17:59.220Z,824.00
2022-09-02T02:19:00.326Z,835.00
2022-09-02T02:19:08.923Z,826.00
2022-09-02T02:20:09.256Z,825.00
2022-09-02T02:21:11.034Z,836.00
2022-09-02T02:22:11.119Z,835.00
2022-09-02T02:23:11.679Z,836.00
2022-09-02T02:24:12.352Z,836.00
2022-09-02T02:25:12.792Z,836.00
2022-09-02T02:26:13.472Z,836.00
2022-09-02T02:27:13.586Z,836.00
2022-09-02T02:28:14.235Z,835.00
2022-09-02T02:29:14.388Z,837.00
2022-09-02T02:30:13.986Z,840.00
2022-09-02T02:31:15.783Z,840.00
2022-09-02T02:32:15.308Z,840.00
2022-09-02T02:33:17.161Z,837.00
2022-09-02T02:34:17.510Z,840.00
2022-09-02T02:35:17.819Z,840.00
2022-09-02T02:36:18.280Z,841.00
2022-09-02T02:37:22.145Z,840.00
2022-09-02T02:37:28.070Z,838.00
2022-09-02T02:38:28.061Z,841.00
2022-09-02T02:39:29.034Z,830.00
2022-09-02T02:40:30.961Z,841.00
2022-09-02T02:41:30.601Z,831.00
2022-09-02T02:42:31.948Z,841.00
2022-09-02T02:43:32.677Z,831.00
2022-09-02T02:44:33.005Z,840.00
2022-09-02T02:45:33.633Z,840.00
2022-09-02T02:46:34.373Z,829.00
2022-09-02T02:47:34.212Z,841.00
2022-09-02T02:48:34.292Z,841.00
2022-09-02T02:49:36.025Z,841.00
2022-09-02T02:50:35.363Z,841.00
2022-09-02T02:51:37.184Z,845.00
2022-09-02T02:52:37.883Z,847.00
2022-09-02T02:53:38.559Z,848.00
2022-09-02T02:54:37.799Z,852.00
2022-09-02T02:55:38.129Z,841.00
2022-09-02T02:56:40.003Z,849.00
2022-09-02T02:57:40.812Z,831.00
2022-09-02T02:58:40.793Z,856.00
2022-09-02T02:58:49.414Z,855.00
2022-09-02T02:59:49.942Z,855.00
2022-09-02T03:00:50.908Z,853.00
2022-09-02T03:01:51.871Z,849.00
2022-09-02T03:02:52.784Z,849.00
2022-09-02T03:03:52.726Z,849.00
2022-09-02T03:04:54.285Z,847.00
2022-09-02T03:05:53.837Z,848.00
2022-09-02T03:06:54.888Z,848.00
2022-09-02T03:07:55.038Z,848.00
2022-09-02T03:08:55.419Z,848.00
2022-09-02T03:09:54.870Z,852.00
2022-09-02T03:10:55.535Z,850.00
2022-09-02T03:11:56.166Z,849.00
2022-09-02T03:12:57.620Z,840.00
2022-09-02T03:13:58.106Z,841.00
2022-09-02T03:14:59.071Z,852.00
2022-09-02T03:15:59.564Z,852.00
2022-09-02T03:16:59.409Z,842.00
2022-09-02T03:17:59.996Z,852.00
2022-09-02T03:19:01.031Z,853.00
2022-09-02T03:20:01.742Z,853.00
2022-09-02T03:21:02.278Z,842.00
2022-09-02T03:21:11.453Z,844.00
2022-09-02T03:22:13.085Z,853.00
2022-09-02T03:23:14.095Z,853.00
2022-09-02T03:24:13.786Z,849.00
2022-09-02T03:25:14.366Z,848.00
2022-09-02T03:26:14.879Z,849.00
2022-09-02T03:27:15.829Z,852.00
2022-09-02T03:28:17.722Z,852.00
2022-09-02T03:29:18.015Z,853.00
2022-09-02T03:30:18.587Z,853.00
2022-09-02T03:31:19.312Z,853.00
2022-09-02T03:32:19.204Z,849.00
2022-09-02T03:33:20.843Z,850.00
2022-09-02T03:34:20.724Z,850.00
2022-09-02T03:35:22.138Z,852.00
2022-09-02T03:36:22.821Z,850.00
2022-09-02T03:37:23.007Z,849.00
2022-09-02T03:38:23.627Z,849.00
2022-09-02T03:39:23.999Z,852.00
2022-09-02T03:40:24.470Z,849.00
2022-09-02T03:41:23.601Z,831.00
2022-09-02T03:42:25.453Z,852.00
2022-09-02T03:42:36.083Z,852.00
2022-09-02T03:43:36.576Z,855.00
2022-09-02T03:44:38.351Z,855.00
2022-09-02T03:45:39.389Z,853.00
2022-09-02T03:46:38.596Z,852.00
2022-09-02T03:47:39.585Z,850.00
2022-09-02T03:48:39.862Z,852.00
2022-09-02T03:49:40.704Z,848.00
2022-09-02T03:50:41.009Z,847.00
2022-09-02T03:51:42.655Z,849.00
2022-09-02T03:52:43.498Z,852.00
2022-09-02T03:53:42.774Z,852.00
2022-09-02T03:54:43.774Z,848.00
2022-09-02T03:55:44.451Z,847.00
2022-09-02T03:56:43.813Z,849.00
2022-09-02T03:57:44.200Z,850.00
2022-09-02T03:58:45.895Z,852.00
2022-09-02T03:59:45.376Z,845.00
2022-09-02T04:00:47.160Z,858.00
2022-09-02T04:01:46.850Z,857.00
2022-09-02T04:02:47.434Z,859.00
2022-09-02T04:03:47.898Z,858.00
2022-09-02T04:04:49.300Z,856.00
2022-09-02T04:05:50.165Z,856.00
2022-09-02T04:05:58.785Z,846.00
2022-09-02T04:06:59.594Z,853.00
2022-09-02T04:08:00.877Z,852.00
2022-09-02T04:09:01.194Z,852.00
2022-09-02T04:10:00.449Z,852.00
2022-09-02T04:11:01.765Z,852.00
2022-09-02T04:12:02.440Z,842.00
2022-09-02T04:13:02.599Z,853.00
2022-09-02T04:14:02.803Z,853.00
2022-09-02T04:15:03.634Z,852.00
2022-09-02T04:16:03.107Z,850.00
2022-09-02T04:17:03.849Z,850.00
2022-09-02T04:18:04.153Z,842.00
2022-09-02T04:19:04.153Z,852.00
2022-09-02T04:20:04.450Z,850.00
2022-09-02T04:21:06.138Z,852.00
2022-09-02T04:22:07.095Z,849.00
2022-09-02T04:23:07.393Z,848.00
2022-09-02T04:24:07.524Z,849.00
2022-09-02T04:25:07.671Z,853.00
2022-09-02T04:26:08.578Z,855.00
2022-09-02T04:27:08.100Z,854.00
2022-09-02T04:27:16.715Z,854.00
2022-09-02T04:28:17.095Z,852.00
2022-09-02T04:29:52.982Z,847.00
2022-09-02T04:30:53.731Z,846.00
2022-09-02T04:31:53.309Z,848.00
2022-09-02T04:32:54.926Z,849.00
2022-09-02T04:34:36.847Z,853.00
2022-09-02T04:35:40.938Z,852.00
2022-09-02T04:38:12.696Z,852.00
2022-09-02T04:39:34.393Z,849.00
2022-09-02T04:40:35.222Z,853.00
2022-09-02T04:41:34.824Z,845.00
2022-09-02T04:42:36.126Z,855.00
2022-09-02T04:43:35.677Z,852.00
2022-09-02T04:44:36.935Z,849.00
2022-09-02T04:45:37.316Z,849.00
2022-09-02T04:46:37.576Z,849.00
2022-09-02T04:47:37.323Z,848.00
2022-09-02T04:48:38.806Z,847.00
2022-09-02T04:49:38.269Z,848.00
2022-09-02T04:50:39.710Z,846.00
2022-09-02T04:50:49.386Z,847.00
2022-09-02T04:51:49.628Z,852.00
2022-09-02T04:52:51.306Z,849.00
2022-09-02T04:53:52.006Z,848.00
2022-09-02T04:54:51.127Z,849.00
2022-09-02T04:55:57.787Z,852.00
2022-09-02T04:56:52.337Z,850.00
2022-09-02T04:57:53.777Z,852.00
2022-09-02T04:58:53.783Z,849.00
2022-09-02T04:59:54.177Z,848.00
2022-09-02T05:00:54.751Z,848.00
2022-09-02T05:01:54.223Z,848.00
2022-09-02T05:02:55.082Z,849.00
2022-09-02T05:04:06.711Z,852.00
2022-09-02T05:05:07.825Z,853.00
2022-09-02T05:06:06.799Z,852.00
2022-09-02T05:08:21.077Z,841.00
2022-09-02T05:13:03.268Z,852.00
2022-09-02T05:14:02.612Z,849.00
2022-09-02T05:15:16.454Z,848.00
2022-09-02T05:16:27.449Z,846.00
2022-09-02T05:19:14.660Z,846.00
2022-09-02T05:20:56.308Z,845.00
2022-09-02T05:21:04.914Z,845.00
2022-09-02T05:22:05.081Z,843.00
2022-09-02T05:23:15.244Z,845.00
2022-09-02T05:24:15.067Z,846.00
2022-09-02T05:25:16.761Z,846.00
2022-09-02T05:26:16.972Z,846.00
2022-09-02T05:27:17.403Z,846.00
2022-09-02T05:28:16.822Z,848.00
2022-09-02T05:29:18.310Z,849.00
2022-09-02T05:30:18.905Z,848.00
2022-09-02T05:31:19.932Z,847.00
2022-09-02T05:32:19.626Z,847.00
2022-09-02T05:33:21.042Z,847.00
2022-09-02T05:34:21.740Z,846.00
2022-09-02T05:35:21.831Z,845.00
2022-09-02T05:36:22.019Z,846.00
2022-09-02T05:37:22.645Z,847.00
2022-09-02T05:38:22.445Z,846.00
2022-09-02T05:39:24.320Z,847.00
2022-09-02T05:40:23.947Z,849.00
2022-09-02T05:41:24.368Z,850.00
2022-09-02T05:41:33.028Z,849.00
2022-09-02T05:42:33.964Z,848.00
2022-09-02T05:43:34.247Z,848.00
2022-09-02T05:44:34.832Z,846.00
2022-09-02T05:45:36.890Z,846.00
2022-09-02T05:46:35.997Z,847.00
2022-09-02T05:47:36.878Z,847.00
2022-09-02T05:48:38.065Z,846.00
2022-09-02T05:49:37.332Z,846.00
2022-09-02T05:50:39.322Z,846.00
2022-09-02T05:51:40.244Z,844.00
2022-09-02T05:52:40.827Z,843.00
2022-09-02T05:53:41.596Z,842.00
2022-09-02T05:54:41.081Z,844.00
2022-09-02T05:55:42.537Z,845.00
2022-09-02T05:56:45.229Z,845.00
2022-09-02T05:57:42.724Z,845.00
2022-09-02T05:58:43.997Z,846.00
2022-09-02T05:59:44.318Z,842.00
2022-09-02T06:00:44.241Z,841.00
2022-09-02T06:01:49.858Z,838.00
2022-09-02T06:02:48.907Z,838.00
2022-09-02T06:02:57.536Z,831.00
2022-09-02T06:03:58.213Z,836.00
2022-09-02T06:05:00.079Z,833.00
2022-09-02T06:06:04.511Z,831.00
2022-09-02T06:09:51.231Z,817.00
2022-09-02T06:11:19.544Z,814.00
2022-09-02T06:12:19.803Z,812.00
2022-09-02T06:13:20.188Z,808.00
2022-09-02T06:14:19.573Z,806.00
2022-09-02T06:15:21.016Z,802.00
2022-09-02T06:16:21.341Z,801.00
2022-09-02T06:17:20.949Z,801.00
2022-09-02T06:18:21.467Z,805.00
2022-09-02T06:19:21.832Z,806.00
2022-09-02T06:20:21.872Z,805.00
2022-09-02T06:21:23.022Z,801.00
2022-09-02T06:22:22.403Z,798.00
2022-09-02T06:23:23.648Z,797.00
2022-09-02T06:24:22.626Z,797.00
2022-09-02T06:25:23.781Z,800.00
2022-09-02T06:26:23.010Z,800.00
2022-09-02T06:27:23.187Z,801.00
2022-09-02T06:27:31.821Z,801.00
2022-09-02T06:28:32.408Z,798.00
2022-09-02T06:29:33.963Z,805.00
2022-09-02T06:30:34.284Z,808.00
2022-09-02T06:31:35.082Z,813.00
2022-09-02T06:32:34.356Z,809.00
2022-09-02T06:33:35.628Z,807.00
2022-09-02T06:34:35.137Z,813.00
2022-09-02T06:35:36.723Z,816.00
2022-09-02T06:36:37.369Z,813.00
2022-09-02T06:37:37.462Z,811.00
2022-09-02T06:38:37.507Z,810.00
2022-09-02T06:39:37.779Z,811.00
2022-09-02T06:40:38.045Z,812.00
2022-09-02T06:41:37.260Z,812.00
2022-09-02T06:42:38.960Z,799.00
2022-09-02T06:43:42.692Z,807.00
2022-09-02T06:44:39.122Z,808.00
2022-09-02T06:45:40.430Z,814.00
2022-09-02T06:46:39.736Z,812.00
2022-09-02T06:46:54.311Z,802.00
2022-09-02T06:47:51.945Z,808.00
2022-09-02T06:48:52.658Z,810.00
2022-09-02T06:49:53.647Z,814.00
2022-09-02T06:50:53.332Z,814.00
2022-09-02T06:51:53.577Z,809.00
2022-09-02T06:52:55.027Z,807.00
2022-09-02T06:53:55.676Z,806.00
2022-09-02T06:54:56.015Z,808.00
2022-09-02T06:55:56.136Z,808.00
2022-09-02T06:56:57.103Z,796.00
2022-09-02T06:57:56.832Z,806.00
2022-09-02T06:58:58.118Z,811.00
2022-09-02T07:00:01.864Z,811.00
2022-09-02T07:00:57.787Z,798.00
2022-09-02T07:01:57.978Z,802.00
2022-09-02T07:02:57.927Z,805.00
2022-09-02T07:04:02.180Z,802.00
2022-09-02T07:04:58.447Z,794.00
2022-09-02T07:05:58.419Z,802.00
2022-09-02T07:07:00.036Z,806.00
2022-09-02T07:07:59.332Z,810.00
2022-09-02T07:08:07.969Z,812.00
2022-09-02T07:09:08.002Z,810.00
2022-09-02T07:10:09.187Z,808.00
2022-09-02T07:11:08.399Z,807.00
2022-09-02T07:12:08.846Z,807.00
2022-09-02T07:13:10.792Z,806.00
2022-09-02T07:14:09.983Z,807.00
2022-09-02T07:15:10.425Z,805.00
2022-09-02T07:16:10.996Z,806.00
2022-09-02T07:17:11.726Z,807.00
2022-09-02T07:18:12.127Z,802.00
2022-09-02T07:19:17.241Z,799.00
2022-09-02T07:20:13.193Z,805.00
2022-09-02T07:21:13.754Z,805.00
2022-09-02T07:22:14.617Z,798.00
2022-09-02T07:23:14.810Z,801.00
2022-09-02T07:24:14.931Z,807.00
2022-09-02T07:25:15.410Z,801.00
2022-09-02T07:26:15.911Z,798.00
2022-09-02T07:27:17.148Z,796.00
2022-09-02T07:28:17.508Z,799.00
2022-09-02T07:29:18.330Z,794.00
2022-09-02T07:30:19.185Z,787.00
2022-09-02T07:31:19.640Z,777.00
2022-09-02T07:32:18.853Z,784.00
2022-09-02T07:33:20.492Z,783.00
2022-09-02T07:33:29.378Z,783.00
2022-09-02T07:34:30.657Z,782.00
2022-09-02T07:35:30.890Z,775.00
2022-09-02T07:36:31.581Z,775.00
2022-09-02T07:37:31.676Z,775.00
2022-09-02T07:38:30.934Z,773.00
2022-09-02T07:39:31.122Z,772.00
2022-09-02T07:40:32.402Z,769.00
2022-09-02T07:41:31.754Z,769.00
2022-09-02T07:42:32.857Z,769.00
2022-09-02T07:43:32.992Z,773.00
2022-09-02T07:44:33.725Z,772.00
2022-09-02T07:45:34.068Z,773.00
2022-09-02T07:46:33.853Z,774.00
2022-09-02T07:47:35.111Z,776.00
2022-09-02T07:48:34.692Z,775.00
2022-09-02T07:50:35.660Z,774.00
2022-09-02T07:51:37.043Z,774.00
2022-09-02T07:52:36.490Z,776.00
2022-09-02T07:53:38.478Z,775.00
2022-09-02T07:53:49.167Z,775.00
2022-09-02T07:54:50.624Z,776.00
2022-09-02T07:55:49.730Z,775.00
2022-09-02T07:56:51.485Z,776.00
2022-09-02T07:57:50.799Z,772.00
2022-09-02T07:58:51.407Z,780.00
2022-09-02T07:59:53.235Z,769.00
2022-09-02T08:00:53.494Z,778.00
2022-09-02T08:01:52.475Z,785.00
2022-09-02T08:02:54.022Z,784.00
2022-09-02T08:03:53.625Z,775.00
2022-09-02T08:04:55.540Z,784.00
2022-09-02T08:05:56.061Z,782.00
2022-09-02T08:06:56.824Z,784.00
2022-09-02T08:07:57.191Z,785.00
2022-09-02T08:08:57.377Z,785.00
2022-09-02T08:09:58.238Z,787.00
2022-09-02T08:10:57.987Z,786.00
2022-09-02T08:11:58.607Z,787.00
2022-09-02T08:13:00.004Z,787.00
2022-09-02T08:14:00.523Z,788.00
2022-09-02T08:15:00.450Z,792.00
2022-09-02T08:16:32.683Z,794.00
2022-09-02T08:17:33.243Z,789.00
2022-09-02T08:18:34.952Z,800.00
2022-09-02T08:19:34.398Z,798.00
2022-09-02T08:20:35.232Z,800.00
2022-09-02T08:21:35.325Z,799.00
2022-09-02T08:22:36.877Z,798.00
2022-09-02T08:23:37.726Z,800.00
2022-09-02T08:24:36.883Z,793.00
2022-09-02T08:25:38.300Z,793.00
2022-09-02T08:26:37.539Z,800.00
2022-09-02T08:27:37.866Z,801.00
2022-09-02T08:28:38.346Z,801.00
2022-09-02T08:29:38.721Z,795.00
2022-09-02T08:30:40.307Z,802.00
2022-09-02T08:31:40.465Z,801.00
2022-09-02T08:32:39.952Z,801.00
2022-09-02T08:33:41.626Z,801.00
2022-09-02T08:34:42.002Z,802.00
2022-09-02T08:35:42.749Z,801.00
2022-09-02T08:36:42.823Z,801.00
2022-09-02T08:37:42.010Z,800.00
2022-09-02T08:37:50.945Z,801.00
2022-09-02T08:38:51.667Z,800.00
2022-09-02T08:39:53.080Z,801.00
2022-09-02T08:40:53.550Z,801.00
2022-09-02T08:41:52.694Z,801.00
2022-09-02T08:42:52.868Z,801.00
2022-09-02T08:43:54.176Z,802.00
2022-09-02T08:44:54.752Z,805.00
2022-09-02T08:45:54.554Z,802.00
2022-09-02T08:46:54.635Z,802.00
2022-09-02T08:47:55.159Z,802.00
2022-09-02T08:48:55.398Z,806.00
2022-09-02T08:49:56.787Z,805.00
2022-09-02T08:50:57.654Z,802.00
2022-09-02T08:52:00.866Z,802.00
2022-09-02T08:52:58.060Z,802.00
2022-09-02T08:53:58.525Z,805.00
2022-09-02T08:54:59.206Z,797.00
2022-09-02T08:56:00.765Z,805.00
2022-09-02T08:57:01.660Z,805.00
2022-09-02T08:58:02.281Z,795.00
2022-09-02T08:59:01.345Z,807.00
2022-09-02T08:59:10.062Z,807.00
2022-09-02T09:00:10.958Z,806.00
2022-09-02T09:01:11.107Z,805.00
2022-09-02T09:02:11.385Z,805.00
2022-09-02T09:03:11.942Z,805.00
2022-09-02T09:04:12.648Z,805.00
2022-09-02T09:05:14.485Z,805.00
2022-09-02T09:06:15.031Z,805.00
2022-09-02T09:07:15.696Z,805.00
2022-09-02T09:08:15.964Z,806.00
2022-09-02T09:09:15.029Z,805.00
2022-09-02T09:10:16.659Z,806.00
2022-09-02T09:11:16.848Z,799.00
2022-09-02T09:12:16.666Z,806.00
2022-09-02T09:13:18.323Z,802.00
2022-09-02T09:14:18.562Z,661.00
2022-09-02T09:15:19.347Z,799.00
2022-09-02T09:16:19.863Z,806.00
2022-09-02T09:17:19.587Z,806.00
2022-09-02T09:18:20.912Z,806.00
2022-09-02T09:19:20.442Z,806.00
2022-09-02T09:19:29.059Z,806.00
2022-09-02T09:20:29.410Z,806.00
2022-09-02T09:21:30.795Z,806.00
2022-09-02T09:22:30.327Z,806.00
2022-09-02T09:23:34.278Z,806.00
2022-09-02T09:24:31.288Z,807.00
2022-09-02T09:25:31.842Z,807.00
2022-09-02T09:26:33.696Z,806.00
2022-09-02T09:27:34.198Z,806.00
2022-09-02T09:28:34.412Z,807.00
2022-09-02T09:29:33.791Z,808.00
2022-09-02T09:30:35.575Z,808.00
2022-09-02T09:31:36.370Z,807.00
2022-09-02T09:32:35.750Z,807.00
2022-09-02T09:33:36.781Z,807.00
2022-09-02T09:34:36.774Z,808.00
2022-09-02T09:35:37.284Z,807.00
2022-09-02T09:36:36.685Z,807.00
2022-09-02T09:37:37.800Z,806.00
2022-09-02T09:38:37.106Z,806.00
2022-09-02T09:39:38.241Z,805.00
2022-09-02T09:40:37.598Z,804.00
2022-09-02T09:40:46.183Z,805.00
2022-09-02T09:41:46.690Z,806.00
2022-09-02T09:42:50.012Z,806.00
2022-09-02T09:43:47.523Z,807.00
2022-09-02T09:44:48.381Z,806.00
2022-09-02T09:45:49.576Z,806.00
2022-09-02T09:46:48.813Z,806.00
2022-09-02T09:47:49.122Z,806.00
2022-09-02T09:48:49.225Z,804.00
2022-09-02T09:49:50.784Z,805.00
2022-09-02T09:50:49.819Z,806.00
2022-09-02T09:51:50.625Z,807.00
2022-09-02T09:52:51.395Z,800.00
2022-09-02T09:53:53.127Z,800.00
2022-09-02T09:54:53.162Z,800.00
2022-09-02T09:55:53.611Z,805.00
2022-09-02T09:56:54.131Z,807.00
2022-09-02T09:57:53.613Z,806.00
2022-09-02T09:58:54.135Z,806.00
2022-09-02T09:59:54.519Z,806.00
2022-09-02T10:00:54.940Z,806.00
2022-09-02T10:01:55.907Z,806.00
2022-09-02T10:02:56.448Z,806.00
2022-09-02T10:03:58.169Z,806.00
2022-09-02T10:04:59.059Z,807.00
2022-09-02T10:05:15.169Z,807.00
2022-09-02T10:06:15.733Z,807.00
2022-09-02T10:07:17.062Z,808.00
2022-09-02T10:08:16.444Z,807.00
2022-09-02T10:09:17.872Z,810.00
2022-09-02T10:10:19.411Z,807.00
2022-09-02T10:11:17.898Z,808.00
2022-09-02T10:12:19.245Z,807.00
2022-09-02T10:14:20.071Z,807.00
2022-09-02T10:15:19.386Z,807.00
2022-09-02T10:16:20.169Z,807.00
2022-09-02T10:17:20.555Z,807.00
2022-09-02T10:18:21.129Z,808.00
2022-09-02T10:19:21.366Z,811.00
2022-09-02T10:20:23.045Z,811.00
2022-09-02T10:21:23.288Z,811.00
2022-09-02T10:22:24.264Z,811.00
2022-09-02T10:23:23.475Z,811.00
2022-09-02T10:24:23.830Z,809.00
2022-09-02T10:25:25.553Z,810.00
2022-09-02T10:27:26.747Z,807.00
2022-09-02T10:27:35.512Z,807.00
2022-09-02T10:28:35.685Z,807.00
2022-09-02T10:29:36.714Z,811.00
2022-09-02T10:30:37.158Z,810.00
2022-09-02T10:31:37.587Z,811.00
2022-09-02T10:32:37.005Z,812.00
2022-09-02T10:33:38.118Z,811.00
2022-09-02T10:34:37.463Z,809.00
2022-09-02T10:35:38.904Z,808.00
2022-09-02T10:36:38.925Z,807.00
2022-09-02T10:37:39.763Z,808.00
2022-09-02T10:38:38.985Z,810.00
2022-09-02T10:39:40.386Z,808.00
2022-09-02T10:40:39.607Z,806.00
2022-09-02T10:41:39.987Z,805.00
2022-09-02T10:42:40.255Z,805.00
2022-09-02T10:43:41.508Z,806.00
2022-09-02T10:44:42.510Z,806.00
2022-09-02T10:45:42.180Z,805.00
2022-09-02T10:46:43.792Z,806.00
2022-09-02T10:47:42.954Z,769.00
2022-09-02T10:48:43.095Z,800.00
2022-09-02T10:48:51.732Z,801.00
2022-09-02T10:49:51.982Z,802.00
2022-09-02T10:50:53.249Z,805.00
2022-09-02T10:51:52.222Z,807.00
2022-09-02T10:52:53.292Z,802.00
2022-09-02T10:53:52.708Z,807.00
2022-09-02T10:54:54.290Z,806.00
2022-09-02T10:55:53.881Z,806.00
2022-09-02T10:56:55.729Z,807.00
2022-09-02T10:57:56.192Z,807.00
2022-09-02T10:58:55.551Z,807.00
2022-09-02T10:59:56.391Z,810.00
2022-09-02T11:00:57.265Z,810.00
2022-09-02T11:01:57.447Z,810.00
2022-09-02T11:02:59.092Z,811.00
2022-09-02T11:03:58.457Z,810.00
2022-09-02T11:04:58.976Z,810.00
2022-09-02T11:06:00.686Z,810.00
2022-09-02T11:07:03.323Z,810.00
2022-09-02T11:08:00.888Z,811.00
2022-09-02T11:09:02.339Z,811.00
2022-09-02T11:10:01.817Z,811.00
2022-09-02T11:11:02.109Z,811.00
2022-09-02T11:12:03.953Z,810.00
2022-09-02T11:12:13.609Z,810.00
2022-09-02T11:13:14.605Z,810.00
2022-09-02T11:14:15.635Z,812.00
2022-09-02T11:15:14.806Z,811.00
2022-09-02T11:16:15.615Z,810.00
2022-09-02T11:17:15.839Z,810.00
2022-09-02T11:18:16.463Z,805.00
2022-09-02T11:19:16.576Z,809.00
2022-09-02T11:20:18.187Z,806.00
2022-09-02T11:21:18.998Z,804.00
2022-09-02T11:22:18.384Z,808.00
2022-09-02T11:23:19.098Z,809.00
2022-09-02T11:24:19.317Z,808.00
2022-09-02T11:25:21.235Z,808.00
2022-09-02T11:26:20.747Z,810.00
2022-09-02T11:27:32.438Z,812.00
2022-09-02T11:28:20.900Z,812.00
2022-09-02T11:29:22.736Z,810.00
2022-09-02T11:30:23.055Z,812.00
2022-09-02T11:31:22.422Z,813.00
2022-09-02T11:32:22.862Z,811.00
2022-09-02T11:33:23.408Z,818.00
2022-09-02T11:34:23.606Z,817.00
2022-09-02T11:35:25.403Z,813.00
2022-09-02T11:36:26.403Z,806.00
2022-09-02T11:37:26.322Z,811.00
2022-09-02T11:37:34.961Z,807.00
2022-09-02T11:38:36.563Z,805.00
2022-09-02T11:39:52.591Z,809.00
2022-09-02T11:40:36.576Z,808.00
2022-09-02T11:41:37.645Z,807.00
2022-09-02T11:42:36.898Z,801.00
2022-09-02T11:43:37.581Z,801.00
2022-09-02T11:44:38.993Z,801.00
2022-09-02T11:45:39.727Z,806.00
2022-09-02T11:46:39.370Z,799.00
2022-09-02T11:47:40.181Z,800.00
2022-09-02T11:48:40.866Z,806.00
2022-09-02T11:49:41.504Z,807.00
2022-09-02T11:50:42.252Z,806.00
2022-09-02T11:51:44.114Z,805.00
2022-09-02T11:52:43.540Z,806.00
2022-09-02T11:53:43.883Z,806.00
2022-09-02T11:54:45.529Z,806.00
2022-09-02T11:55:45.312Z,806.00
2022-09-02T11:56:45.853Z,804.00
2022-09-02T11:57:47.338Z,804.00
2022-09-02T11:58:46.722Z,804.00
2022-09-02T11:59:47.070Z,802.00
2022-09-02T12:00:47.546Z,802.00
2022-09-02T12:01:48.787Z,802.00
2022-09-02T12:01:58.486Z,801.00
2022-09-02T12:03:02.568Z,801.00
2022-09-02T12:04:55.751Z,802.00
2022-09-02T12:05:01.758Z,802.00
2022-09-02T12:06:01.168Z,806.00
2022-09-02T12:07:08.245Z,800.00
2022-09-02T12:08:02.216Z,801.00
2022-09-02T12:09:03.306Z,802.00
2022-09-02T12:10:02.593Z,811.00
2022-09-02T12:11:03.088Z,811.00
2022-09-02T12:12:04.988Z,807.00
2022-09-02T12:13:08.360Z,811.00
2022-09-02T12:14:07.786Z,811.00
2022-09-02T12:15:06.036Z,809.00
2022-09-02T12:16:06.132Z,802.00
2022-09-02T12:17:06.425Z,807.00
2022-09-02T12:18:07.655Z,807.00
2022-09-02T12:19:08.195Z,808.00
2022-09-02T12:20:08.015Z,812.00
2022-09-02T12:21:08.047Z,810.00
2022-09-02T12:22:08.532Z,810.00
2022-09-02T12:23:08.791Z,808.00
2022-09-02T12:24:10.600Z,807.00
2022-09-02T12:25:11.307Z,806.00
2022-09-02T12:26:15.794Z,806.00